Time;durP1;ratioP1;P1;durP2;ratioP2;P2;SDS_P1;SDS_P2;PMS_P1;PMS_P2;Temp;Humidity;BMP_temperature;BMP_pressure;BME280_temperature;BME280_humidity;BME280_pressure;Samples;Min_cycle;Max_cycle;Signal;HPM_P1;HPM_P2
2022/10/03 00:01:53;;;;;;;30.05;25.35;;;13.30;99.90;;;;;;5011113;28;20033;-85
2022/10/03 00:04:47;;;;;;;31.92;24.45;;;13.30;99.90;;;;;;4987079;28;20011;-86
2022/10/03 00:07:34;;;;;;;30.65;23.90;;;13.30;99.90;;;;;;5030366;28;20038;-83
2022/10/03 00:10:28;;;;;;;29.58;23.15;;;13.40;99.90;;;;;;5008474;28;20026;-87
2022/10/03 00:13:00;;;;;;;31.25;25.25;;;13.40;99.90;;;;;;4987656;28;20407;-85
2022/10/03 00:15:31;;;;;;;34.55;25.08;;;13.40;99.90;;;;;;4995280;28;20473;-85
2022/10/03 00:18:01;;;;;;;30.95;24.02;;;13.50;99.90;;;;;;4995647;28;20396;-84
2022/10/03 00:20:35;;;;;;;27.23;21.08;;;13.50;99.90;;;;;;4997741;28;20034;-84
2022/10/03 00:23:29;;;;;;;27.73;21.20;;;13.60;99.90;;;;;;4997202;28;20038;-84
2022/10/03 00:26:25;;;;;;;29.25;22.38;;;13.60;99.90;;;;;;4996369;28;20026;-84
2022/10/03 00:29:04;;;;;;;27.27;21.33;;;13.60;99.90;;;;;;5008427;28;20136;-84
2022/10/03 00:32:12;;;;;;;24.23;20.95;;;13.70;99.90;;;;;;4996109;28;20044;-84
2022/10/03 00:34:57;;;;;;;27.77;20.35;;;13.70;99.90;;;;;;5014106;28;20064;-84
2022/10/03 00:37:36;;;;;;;26.30;19.73;;;13.70;99.90;;;;;;5015381;28;20033;-86
2022/10/03 00:40:40;;;;;;;27.67;21.52;;;13.80;99.90;;;;;;5018567;28;20492;-83
2022/10/03 00:43:27;;;;;;;28.33;21.05;;;13.80;99.90;;;;;;5022866;28;20096;-86
2022/10/03 00:46:20;;;;;;;25.00;20.38;;;13.90;99.90;;;;;;5016722;28;20026;-85
2022/10/03 00:48:59;;;;;;;27.73;21.38;;;13.90;99.90;;;;;;5018286;28;20498;-83
2022/10/03 00:51:40;;;;;;;25.33;20.40;;;13.90;99.90;;;;;;5028633;28;20065;-83
2022/10/03 00:54:14;;;;;;;23.52;19.15;;;14.00;99.90;;;;;;5035758;28;20055;-84
2022/10/03 00:56:49;;;;;;;23.52;20.77;;;14.00;99.90;;;;;;5025111;28;20089;-85
2022/10/03 00:59:36;;;;;;;27.27;20.42;;;14.00;99.90;;;;;;5043947;28;20025;-84
2022/10/03 01:02:37;;;;;;;26.27;20.27;;;14.10;99.90;;;;;;5025121;28;20400;-82
2022/10/03 01:05:27;;;;;;;24.77;20.45;;;14.10;99.90;;;;;;5030725;28;20022;-84
2022/10/03 01:08:25;;;;;;;25.52;22.83;;;14.10;99.90;;;;;;5014613;28;20384;-83
2022/10/03 01:11:15;;;;;;;35.85;23.20;;;14.20;99.90;;;;;;5000550;28;20041;-84
2022/10/03 01:13:52;;;;;;;27.83;23.95;;;14.20;99.90;;;;;;5033627;28;20033;-85
2022/10/03 01:16:50;;;;;;;28.80;24.35;;;14.30;99.90;;;;;;5034522;28;20025;-85
2022/10/03 01:19:51;;;;;;;27.42;24.45;;;14.30;99.90;;;;;;5033301;28;20036;-83
2022/10/03 01:22:16;;;;;;;26.38;22.05;;;14.30;99.90;;;;;;5033783;28;20108;-84
2022/10/03 01:24:51;;;;;;;27.92;24.73;;;14.30;99.90;;;;;;5033847;28;20105;-83
2022/10/03 01:30:49;;;;;;;25.35;22.65;;;14.40;99.90;;;;;;5034244;28;20036;-83
2022/10/03 01:33:43;;;;;;;25.38;22.13;;;14.40;99.90;;;;;;5035138;28;20533;-83
2022/10/03 01:36:40;;;;;;;28.70;23.35;;;14.40;99.90;;;;;;5036053;28;20036;-85
2022/10/03 01:39:18;;;;;;;26.08;20.40;;;14.40;99.90;;;;;;5007111;28;20033;-84
2022/10/03 01:41:58;;;;;;;27.70;22.35;;;14.50;99.90;;;;;;5033555;28;20478;-83
2022/10/03 01:44:36;;;;;;;24.60;20.35;;;14.50;99.90;;;;;;5035086;28;20033;-82
2022/10/03 01:47:11;;;;;;;25.52;20.92;;;14.50;99.90;;;;;;5038616;28;20475;-84
2022/10/03 01:50:00;;;;;;;22.20;19.77;;;14.50;99.90;;;;;;5034561;28;20029;-85
2022/10/03 01:52:46;;;;;;;24.17;19.73;;;14.60;99.90;;;;;;5034227;28;20013;-85
2022/10/03 01:55:35;;;;;;;20.55;18.30;;;14.60;99.90;;;;;;5025019;28;20022;-84
2022/10/03 01:58:11;;;;;;;24.23;19.77;;;14.60;99.90;;;;;;5020852;28;20042;-84
2022/10/03 02:00:43;;;;;;;23.52;20.02;;;14.60;99.90;;;;;;5033876;28;20099;-85
2022/10/03 02:03:24;;;;;;;24.75;18.95;;;14.60;99.90;;;;;;5033126;28;20091;-84
2022/10/03 02:06:05;;;;;;;22.25;19.02;;;14.60;99.90;;;;;;5036723;28;20026;-83
2022/10/03 02:08:50;;;;;;;21.08;18.95;;;14.60;99.90;;;;;;5043453;28;20093;-83
2022/10/03 02:11:48;;;;;;;20.98;18.60;;;14.70;99.90;;;;;;5047091;28;20383;-84
2022/10/03 02:14:33;;;;;;;23.42;17.98;;;14.70;99.90;;;;;;5022567;28;20132;-84
2022/10/03 02:17:41;;;;;;;20.83;17.17;;;14.70;99.90;;;;;;5033602;28;20382;-83
2022/10/03 02:20:50;;;;;;;20.52;17.75;;;14.70;99.90;;;;;;5006406;28;20052;-84
2022/10/03 02:23:31;;;;;;;24.15;18.40;;;14.80;99.90;;;;;;5012755;28;20018;-84
2022/10/03 02:26:16;;;;;;;21.67;17.25;;;14.80;99.90;;;;;;5006376;28;20467;-85
2022/10/03 02:29:16;;;;;;;20.00;17.98;;;14.80;99.90;;;;;;5034250;28;20386;-82
2022/10/03 02:31:57;;;;;;;19.85;17.67;;;14.80;99.90;;;;;;5054378;28;20029;-85
2022/10/03 02:34:47;;;;;;;19.50;17.08;;;14.90;99.90;;;;;;5036732;28;20029;-85
2022/10/03 02:37:50;;;;;;;18.38;16.27;;;14.90;99.90;;;;;;5010748;28;20363;-84
2022/10/03 02:40:26;;;;;;;18.05;16.15;;;14.90;99.90;;;;;;5012952;28;20041;-85
2022/10/03 02:43:16;;;;;;;18.15;16.27;;;14.90;99.90;;;;;;5044585;28;20064;-84
2022/10/03 02:46:06;;;;;;;21.88;17.63;;;14.90;99.90;;;;;;5033058;28;20088;-84
2022/10/03 02:48:57;;;;;;;19.70;17.65;;;15.00;99.90;;;;;;5033014;28;20026;-84
2022/10/03 02:52:01;;;;;;;18.80;16.85;;;15.00;99.90;;;;;;5015227;28;20052;-85
2022/10/03 02:55:04;;;;;;;19.88;16.30;;;15.00;99.90;;;;;;5032470;28;20033;-84
2022/10/03 02:58:00;;;;;;;21.60;17.42;;;15.00;99.90;;;;;;5017216;28;20052;-85
2022/10/03 03:00:48;;;;;;;16.65;14.40;;;15.10;99.90;;;;;;5013976;28;20033;-85
2022/10/03 03:03:27;;;;;;;;;;;15.10;99.90;;;;;;5033065;28;20049;-85
2022/10/03 03:06:18;;;;;;;16.92;14.70;;;15.10;99.90;;;;;;5032507;28;19905;-85
2022/10/03 03:09:02;;;;;;;17.15;15.52;;;15.10;99.90;;;;;;5022094;28;20149;-84
2022/10/03 03:11:49;;;;;;;18.52;16.17;;;15.10;99.90;;;;;;5032371;28;20391;-85
2022/10/03 03:14:27;;;;;;;18.88;15.75;;;15.10;99.90;;;;;;5033185;28;20028;-85
2022/10/03 03:17:24;;;;;;;18.23;16.38;;;15.10;99.90;;;;;;5018841;28;20111;-86
2022/10/03 03:20:28;;;;;;;21.73;17.23;;;15.20;99.90;;;;;;5032239;28;20442;-85
2022/10/03 03:23:28;;;;;;;16.88;14.60;;;15.20;99.90;;;;;;5032636;28;20029;-85
2022/10/03 03:26:17;;;;;;;17.92;14.43;;;15.20;99.90;;;;;;4985319;28;20052;-86
2022/10/03 03:29:50;;;;;;;16.40;14.85;;;15.20;99.90;;;;;;5033109;28;20413;-84
2022/10/03 03:32:53;;;;;;;18.13;16.23;;;15.20;99.90;;;;;;4949716;29;20031;-86
2022/10/03 03:35:41;;;;;;;20.08;17.40;;;15.20;99.90;;;;;;4949202;29;20027;-84
2022/10/03 03:38:45;;;;;;;18.55;15.82;;;15.20;99.90;;;;;;4939951;29;20461;-86
2022/10/03 03:41:29;;;;;;;18.50;16.50;;;15.20;99.90;;;;;;4957382;29;20046;-86
2022/10/03 03:44:24;;;;;;;20.83;18.70;;;15.20;99.90;;;;;;4950112;29;20035;-85
2022/10/03 03:47:20;;;;;;;17.60;15.80;;;15.30;99.90;;;;;;4956338;29;20153;-83
2022/10/03 03:50:01;;;;;;;20.35;17.83;;;15.30;99.90;;;;;;4955369;28;20050;-84
2022/10/03 03:52:56;;;;;;;19.25;17.15;;;15.30;99.90;;;;;;4955185;29;20031;-84
2022/10/03 03:55:30;;;;;;;21.45;17.77;;;15.30;99.90;;;;;;4936969;29;20027;-84
2022/10/03 03:58:32;;;;;;;20.88;18.23;;;15.30;99.90;;;;;;4936577;29;20051;-84
2022/10/03 04:01:28;;;;;;;27.10;20.70;;;15.30;99.90;;;;;;4940563;29;20413;-84
2022/10/03 04:04:05;;;;;;;20.67;18.47;;;15.40;99.90;;;;;;4994928;28;20046;-84
2022/10/03 04:07:05;;;;;;;22.53;20.00;;;15.40;99.90;;;;;;5032157;28;20014;-83
2022/10/03 04:09:46;;;;;;;25.35;21.38;;;15.30;99.90;;;;;;5019149;28;20052;-83
2022/10/03 04:12:49;;;;;;;25.48;22.38;;;15.40;99.90;;;;;;5036347;28;20018;-84
2022/10/03 04:15:32;;;;;;;29.92;26.80;;;15.40;99.90;;;;;;5024357;28;20036;-83
2022/10/03 04:21:09;;;;;;;29.70;26.40;;;15.40;99.90;;;;;;5030617;28;20084;-85
2022/10/03 04:23:56;;;;;;;33.92;27.88;;;15.50;99.90;;;;;;5005051;28;20080;-84
2022/10/03 04:26:47;;;;;;;27.67;23.88;;;15.50;99.90;;;;;;4999191;28;20035;-84
2022/10/03 04:29:42;;;;;;;32.13;26.15;;;15.50;99.90;;;;;;5033931;28;20002;-84
2022/10/03 04:32:29;;;;;;;28.83;24.55;;;15.50;99.90;;;;;;5016097;28;20028;-82
2022/10/03 04:35:03;;;;;;;25.58;23.08;;;15.50;99.90;;;;;;5020206;28;20026;-84
2022/10/03 04:37:38;;;;;;;30.63;22.02;;;15.50;99.90;;;;;;4999052;28;20057;-86
2022/10/03 04:40:37;;;;;;;25.67;22.40;;;15.60;99.90;;;;;;5018023;28;20065;-84
2022/10/03 04:43:15;;;;;;;26.30;23.48;;;15.60;99.90;;;;;;5010924;28;20048;-85
2022/10/03 04:46:12;;;;;;;27.60;24.02;;;15.60;99.90;;;;;;5016177;28;20022;-85
2022/10/03 04:48:50;;;;;;;;;;;15.70;99.90;;;;;;5009475;28;20033;-86
2022/10/03 04:51:40;;;;;;;29.90;22.27;;;15.70;99.90;;;;;;5017801;28;19905;-87
2022/10/03 04:54:34;;;;;;;24.42;22.05;;;15.70;99.90;;;;;;5020285;28;20018;-85
2022/10/03 04:57:46;;;;;;;24.98;20.92;;;15.70;99.90;;;;;;5013819;28;20080;-83
2022/10/03 05:00:27;;;;;;;23.15;19.52;;;15.80;99.90;;;;;;5009391;28;20038;-83
2022/10/03 05:03:25;;;;;;;37.40;29.02;;;15.70;99.90;;;;;;5036449;28;20029;-87
2022/10/03 05:05:58;;;;;;;26.50;21.08;;;15.80;99.90;;;;;;4993296;28;20065;-85
2022/10/03 05:09:11;;;;;;;27.38;21.20;;;15.80;99.90;;;;;;5020661;28;20050;-85
2022/10/03 05:12:21;;;;;;;22.65;20.27;;;15.90;99.90;;;;;;4982186;28;20033;-87
2022/10/03 05:15:20;;;;;;;22.27;18.70;;;16.10;99.90;;;;;;5024265;28;20142;-87
2022/10/03 05:18:13;;;;;;;21.40;19.15;;;16.10;99.90;;;;;;4961313;28;20034;-87
2022/10/03 05:20:50;;;;;;;21.73;18.13;;;16.10;99.90;;;;;;5032176;28;20556;-87
2022/10/03 05:23:35;;;;;;;24.55;17.70;;;16.00;99.90;;;;;;5024194;28;20042;-86
2022/10/03 05:26:18;;;;;;;19.20;14.68;;;16.00;99.90;;;;;;5004037;28;20018;-87
2022/10/03 05:29:04;;;;;;;26.33;15.88;;;16.10;99.90;;;;;;5016817;28;20029;-86
2022/10/03 05:32:16;;;;;;;18.40;15.13;;;16.10;99.90;;;;;;5002608;28;20030;-85
2022/10/03 05:34:49;;;;;;;18.42;13.20;;;16.10;99.90;;;;;;4914287;29;20048;-85
2022/10/03 05:37:45;;;;;;;20.08;12.65;;;16.10;99.90;;;;;;4919656;29;20072;-86
2022/10/03 05:40:24;;;;;;;18.33;13.88;;;16.10;99.90;;;;;;4927437;29;20044;-88
2022/10/03 05:42:51;;;;;;;18.58;14.30;;;16.10;99.90;;;;;;4924126;29;20044;-83
2022/10/03 05:45:43;;;;;;;26.92;14.23;;;16.10;99.90;;;;;;4918041;29;20028;-85
2022/10/03 05:48:23;;;;;;;16.85;13.57;;;16.10;99.90;;;;;;4902826;29;20050;-85
2022/10/03 05:50:56;;;;;;;18.90;15.02;;;16.20;99.90;;;;;;4931636;29;20039;-84
2022/10/03 05:53:38;;;;;;;18.85;13.25;;;16.20;99.90;;;;;;4912915;29;20400;-86
2022/10/03 05:56:48;;;;;;;17.73;12.18;;;16.20;99.90;;;;;;4905031;29;20421;-84
2022/10/03 05:59:38;;;;;;;18.25;11.15;;;16.10;99.90;;;;;;4856783;29;20040;-85
2022/10/03 06:02:19;;;;;;;18.98;12.48;;;16.00;99.90;;;;;;4875149;29;20038;-86
2022/10/03 06:04:49;;;;;;;16.23;12.85;;;16.00;99.90;;;;;;4890313;29;20042;-86
2022/10/03 06:07:28;;;;;;;19.98;12.23;;;16.00;99.90;;;;;;4955569;29;20122;-85
2022/10/03 06:10:24;;;;;;;23.52;14.20;;;16.10;99.90;;;;;;4924785;29;20092;-84
2022/10/03 06:12:59;;;;;;;20.55;12.77;;;16.10;99.90;;;;;;4939416;29;20024;-86
2022/10/03 06:15:43;;;;;;;16.30;12.07;;;16.20;99.90;;;;;;4967861;29;20079;-84
2022/10/03 06:18:18;;;;;;;12.57;10.60;;;16.10;99.90;;;;;;4953466;29;20035;-84
2022/10/03 06:21:13;;;;;;;16.30;10.68;;;16.10;99.90;;;;;;4962067;29;20047;-84
2022/10/03 06:23:57;;;;;;;22.48;11.10;;;16.10;99.90;;;;;;4970551;29;20047;-83
2022/10/03 06:26:35;;;;;;;17.10;11.25;;;16.10;99.90;;;;;;4963682;29;20086;-84
2022/10/03 06:29:37;;;;;;;16.15;10.75;;;16.10;99.90;;;;;;4959023;29;20099;-84
2022/10/03 06:32:24;;;;;;;16.30;10.23;;;16.10;99.90;;;;;;4964460;28;20035;-84
2022/10/03 06:35:03;;;;;;;;;;;16.10;99.90;;;;;;5024436;28;20049;-86
2022/10/03 06:37:47;;;;;;;18.63;10.05;;;16.00;99.90;;;;;;5023827;28;20361;-84
2022/10/03 06:41:03;;;;;;;19.25;11.10;;;16.00;99.90;;;;;;5013887;28;20042;-85
2022/10/03 06:43:58;;;;;;;20.30;10.38;;;16.00;99.90;;;;;;5026861;28;20058;-84
2022/10/03 06:47:02;;;;;;;12.40;7.55;;;15.90;99.90;;;;;;5000083;28;20057;-83
2022/10/03 06:49:42;;;;;;;12.77;9.55;;;15.90;99.90;;;;;;5036662;28;20025;-88
2022/10/03 06:52:18;;;;;;;14.68;8.32;;;15.80;99.90;;;;;;5035972;28;20017;-83
2022/10/03 06:55:13;;;;;;;12.60;8.77;;;15.80;99.90;;;;;;5011570;28;20167;-84
2022/10/03 06:57:45;;;;;;;20.63;10.07;;;15.70;99.90;;;;;;5016028;28;20391;-86
2022/10/03 07:00:40;;;;;;;14.90;9.38;;;15.80;99.90;;;;;;5029856;28;20087;-86
2022/10/03 07:03:18;;;;;;;17.05;8.98;;;15.80;99.90;;;;;;5012340;28;20033;-86
2022/10/03 07:06:05;;;;;;;22.55;10.48;;;15.70;99.90;;;;;;5009143;28;20026;-83
2022/10/03 07:08:50;;;;;;;;;;;15.70;99.90;;;;;;5003088;28;20029;-86
2022/10/03 07:11:43;;;;;;;17.17;8.63;;;15.60;99.90;;;;;;5019654;28;19909;-86
2022/10/03 07:14:46;;;;;;;16.27;9.80;;;15.50;99.90;;;;;;5034182;28;20010;-86
2022/10/03 07:17:34;;;;;;;9.45;8.20;;;15.40;99.90;;;;;;5012862;28;20044;-87
2022/10/03 07:20:32;;;;;;;11.93;9.30;;;15.40;99.90;;;;;;5037178;28;20033;-87
2022/10/03 07:23:47;;;;;;;15.98;8.43;;;15.40;99.90;;;;;;5016406;28;20093;-86
2022/10/03 07:26:47;;;;;;;14.10;9.77;;;15.40;99.90;;;;;;5021387;28;20500;-86
2022/10/03 07:29:40;;;;;;;13.90;8.65;;;15.30;99.90;;;;;;5006554;28;20036;-89
2022/10/03 07:32:42;;;;;;;15.98;8.77;;;15.30;99.90;;;;;;5006728;28;20021;-85
2022/10/03 07:38:58;;;;;;;17.38;9.38;;;15.30;99.90;;;;;;5024260;28;20044;-88
2022/10/03 07:42:08;;;;;;;15.40;9.07;;;15.30;99.90;;;;;;5021073;28;20128;-87
2022/10/03 07:45:19;;;;;;;17.35;8.52;;;15.30;99.90;;;;;;4892160;29;20041;-87
2022/10/03 07:48:18;;;;;;;12.02;8.43;;;15.30;99.90;;;;;;4906569;29;20527;-86
2022/10/03 07:51:12;;;;;;;13.73;9.63;;;15.30;99.90;;;;;;4892555;29;20063;-87
2022/10/03 07:53:59;;;;;;;13.85;8.77;;;15.30;99.90;;;;;;4904449;29;20077;-87
2022/10/03 07:56:50;;;;;;;11.95;8.85;;;15.30;99.90;;;;;;4882930;29;20044;-87
2022/10/03 07:59:52;;;;;;;11.73;8.95;;;15.30;99.90;;;;;;4906344;29;20029;-86
2022/10/03 08:02:33;;;;;;;12.48;9.27;;;15.30;99.90;;;;;;4907936;29;20028;-87
2022/10/03 08:05:01;;;;;;;16.90;10.38;;;15.20;99.90;;;;;;4925110;29;20036;-86
2022/10/03 08:07:46;;;;;;;21.17;9.85;;;15.20;99.90;;;;;;4920607;29;20028;-87
2022/10/03 08:10:48;;;;;;;14.30;8.43;;;15.30;99.90;;;;;;4909228;29;20116;-88
2022/10/03 08:13:49;;;;;;;11.57;9.25;;;15.20;99.90;;;;;;4924142;29;20038;-86
2022/10/03 08:16:20;;;;;;;13.85;10.20;;;15.20;99.90;;;;;;5013330;28;20073;-87
2022/10/03 08:19:11;;;;;;;11.30;9.07;;;15.10;99.90;;;;;;5043516;28;20093;-85
2022/10/03 08:21:57;;;;;;;14.50;8.50;;;15.10;99.90;;;;;;5013370;28;20041;-86
2022/10/03 08:24:31;;;;;;;11.70;8.43;;;15.20;99.90;;;;;;5006856;28;20041;-87
2022/10/03 08:27:24;;;;;;;12.57;7.38;;;15.20;99.90;;;;;;5005091;28;20157;-87
2022/10/03 08:30:03;;;;;;;12.95;8.57;;;15.30;99.90;;;;;;5040346;28;20026;-85
2022/10/03 08:32:55;;;;;;;9.88;6.82;;;15.20;99.90;;;;;;5033756;28;20026;-85
2022/10/03 08:36:10;;;;;;;9.20;7.25;;;15.20;99.90;;;;;;5041007;28;20505;-86
2022/10/03 08:38:49;;;;;;;10.15;7.43;;;15.20;99.90;;;;;;5023994;28;20131;-86
2022/10/03 08:41:33;;;;;;;7.93;5.65;;;15.20;99.90;;;;;;4996246;28;20034;-86
2022/10/03 08:44:25;;;;;;;12.38;7.80;;;15.20;99.90;;;;;;5029133;28;20029;-87
2022/10/03 08:47:48;;;;;;;7.30;4.70;;;15.30;99.90;;;;;;4967698;28;20069;-87
2022/10/03 08:50:14;;;;;;;14.27;7.50;;;15.10;99.90;;;;;;4963643;29;20111;-86
2022/10/03 08:53:00;;;;;;;14.13;8.93;;;15.00;99.90;;;;;;4941657;29;20445;-85
2022/10/03 08:55:46;;;;;;;17.90;8.32;;;14.80;99.90;;;;;;4959756;29;20063;-84
2022/10/03 08:59:09;;;;;;;14.65;10.00;;;14.70;99.90;;;;;;4958820;29;20408;-85
2022/10/03 09:01:44;;;;;;;12.98;8.38;;;14.60;99.90;;;;;;4900952;29;20040;-83
2022/10/03 09:04:45;;;;;;;16.30;8.73;;;14.60;99.90;;;;;;4902165;29;20056;-84
2022/10/03 09:07:34;;;;;;;19.83;9.38;;;14.50;99.90;;;;;;4944770;29;20035;-83
2022/10/03 09:10:15;;;;;;;23.08;9.48;;;14.50;99.90;;;;;;4942910;29;20028;-82
2022/10/03 09:12:56;;;;;;;14.10;8.77;;;14.40;99.90;;;;;;4949736;29;20051;-82
2022/10/03 09:15:40;;;;;;;15.23;9.13;;;14.30;99.90;;;;;;4945933;29;20032;-84
2022/10/03 09:18:42;;;;;;;13.13;9.82;;;14.30;99.90;;;;;;4944260;29;20039;-86
2022/10/03 09:21:28;;;;;;;12.60;10.02;;;14.40;99.90;;;;;;5014663;28;20052;-85
2022/10/03 09:24:03;;;;;;;12.65;10.70;;;14.40;99.90;;;;;;5022078;28;20017;-85
2022/10/03 09:27:00;;;;;;;15.80;12.30;;;14.50;99.90;;;;;;5016871;28;20041;-83
2022/10/03 09:29:58;;;;;;;12.38;10.18;;;14.70;99.90;;;;;;5002583;28;20072;-84
2022/10/03 09:32:42;;;;;;;11.95;9.88;;;14.80;99.90;;;;;;5000826;28;20033;-86
2022/10/03 09:35:46;;;;;;;13.43;9.55;;;14.90;99.90;;;;;;5038788;28;20029;-85
2022/10/03 09:38:20;;;;;;;14.00;10.25;;;14.90;99.90;;;;;;5009425;28;20093;-83
2022/10/03 09:41:10;;;;;;;12.63;9.88;;;14.90;99.90;;;;;;5020508;28;20034;-84
2022/10/03 09:43:56;;;;;;;13.93;10.45;;;14.80;99.90;;;;;;5021388;28;20050;-85
2022/10/03 09:47:21;;;;;;;11.40;7.78;;;14.80;99.90;;;;;;5028954;28;20078;-86
2022/10/03 09:49:58;;;;;;;8.13;6.35;;;14.60;99.90;;;;;;5051580;28;20056;-85
2022/10/03 09:52:55;;;;;;;7.10;4.57;;;14.60;99.90;;;;;;5044584;28;20533;-88
2022/10/03 09:56:00;;;;;;;6.47;4.97;;;14.50;99.90;;;;;;4991987;28;20034;-87
2022/10/03 09:59:01;;;;;;;6.63;3.92;;;14.70;99.90;;;;;;5002765;28;20029;-87
2022/10/03 10:01:44;;;;;;;4.82;3.70;;;14.70;99.90;;;;;;5002273;28;20033;-85
2022/10/03 10:04:49;;;;;;;6.60;4.47;;;14.70;99.90;;;;;;5018904;28;20026;-86
2022/10/03 10:07:36;;;;;;;6.75;3.53;;;14.80;99.90;;;;;;5025674;28;20017;-87
2022/10/03 10:10:20;;;;;;;5.53;3.20;;;14.90;99.90;;;;;;5033044;28;20029;-86
2022/10/03 10:13:14;;;;;;;7.55;4.93;;;14.80;99.90;;;;;;5021820;28;20064;-88
2022/10/03 10:15:48;;;;;;;4.05;3.25;;;15.00;99.90;;;;;;5022338;28;20022;-87
2022/10/03 10:18:20;;;;;;;5.22;3.03;;;15.10;99.90;;;;;;5021334;28;20036;-86
2022/10/03 10:21:09;;;;;;;10.70;3.67;;;15.20;99.90;;;;;;5018813;28;20117;-86
2022/10/03 10:24:06;;;;;;;6.20;3.58;;;15.20;99.90;;;;;;5027471;28;20010;-85
2022/10/03 10:27:01;;;;;;;3.70;2.13;;;14.90;99.90;;;;;;5024199;28;20450;-86
2022/10/03 10:29:35;;;;;;;2.92;1.33;;;14.50;99.90;;;;;;5009143;28;20038;-85
2022/10/03 10:32:56;;;;;;;2.90;1.58;;;14.20;99.90;;;;;;5012798;28;20045;-86
2022/10/03 10:35:31;;;;;;;2.05;1.50;;;13.70;99.90;;;;;;5028558;28;20018;-84
2022/10/03 10:38:26;;;;;;;2.65;1.75;;;13.50;99.90;;;;;;5019424;28;20033;-86
2022/10/03 10:41:11;;;;;;;5.68;2.05;;;13.30;99.90;;;;;;5014856;28;20040;-86
2022/10/03 10:44:14;;;;;;;4.25;2.17;;;13.40;99.90;;;;;;5024963;28;20552;-87
2022/10/03 10:46:40;;;;;;;3.63;2.20;;;13.50;99.90;;;;;;5026252;28;20021;-86
2022/10/03 10:49:27;;;;;;;4.18;2.20;;;13.70;99.90;;;;;;5007927;28;20114;-87
2022/10/03 10:51:59;;;;;;;5.80;2.50;;;13.80;99.90;;;;;;5029251;28;20030;-85
2022/10/03 10:54:49;;;;;;;4.78;3.03;;;13.90;99.90;;;;;;5021178;28;20030;-85
2022/10/03 10:57:39;;;;;;;3.28;2.25;;;14.10;99.90;;;;;;5024991;28;20022;-86
2022/10/03 11:00:32;;;;;;;4.95;3.42;;;14.10;99.90;;;;;;5014496;28;20034;-85
2022/10/03 11:03:40;;;;;;;3.30;2.58;;;14.20;99.90;;;;;;5037505;28;20109;-86
2022/10/03 11:06:43;;;;;;;3.35;2.45;;;14.20;99.90;;;;;;5037862;28;20022;-87
2022/10/03 11:09:24;;;;;;;4.30;2.70;;;14.40;99.90;;;;;;5017185;28;20100;-85
2022/10/03 11:12:44;;;;;;;4.25;2.92;;;14.20;99.90;;;;;;5018060;28;20479;-84
2022/10/03 11:15:42;;;;;;;3.05;2.38;;;13.80;99.90;;;;;;5015985;28;20026;-88
2022/10/03 11:18:33;;;;;;;5.50;2.95;;;13.60;99.90;;;;;;5019216;28;20022;-86
2022/10/03 11:21:23;;;;;;;3.50;2.83;;;13.30;99.90;;;;;;5013187;28;20034;-84
2022/10/03 11:24:18;;;;;;;1.70;1.60;;;13.10;99.90;;;;;;5024419;28;20022;-86
2022/10/03 11:26:53;;;;;;;3.83;1.98;;;12.80;99.90;;;;;;5032550;28;20018;-84
2022/10/03 11:29:28;;;;;;;3.65;2.20;;;12.60;99.90;;;;;;5022943;28;20025;-85
2022/10/03 11:32:01;;;;;;;3.75;2.25;;;12.50;99.90;;;;;;5037387;28;20047;-85
2022/10/03 11:34:48;;;;;;;2.85;2.00;;;12.50;99.90;;;;;;5031663;28;20022;-87
2022/10/03 11:37:18;;;;;;;2.83;2.30;;;12.60;99.90;;;;;;5040595;28;20398;-86
2022/10/03 11:39:49;;;;;;;4.80;2.35;;;12.80;99.90;;;;;;5037777;28;20034;-85
2022/10/03 11:42:46;;;;;;;2.00;1.70;;;12.90;99.90;;;;;;4999618;28;20045;-85
2022/10/03 11:45:24;;;;;;;;;;;13.00;99.90;;;;;;5017874;28;20559;-87
2022/10/03 11:48:20;;;;;;;3.83;1.95;;;12.80;99.90;;;;;;5018319;28;19905;-86
2022/10/03 11:50:52;;;;;;;2.00;1.20;;;12.60;99.90;;;;;;5017529;28;20022;-88
2022/10/03 11:53:40;;;;;;;2.20;1.67;;;12.70;99.90;;;;;;5018115;28;20025;-84
2022/10/03 11:56:38;;;;;;;3.88;1.90;;;12.70;99.90;;;;;;5021614;28;20026;-86
2022/10/03 11:59:07;;;;;;;3.15;1.63;;;12.70;99.90;;;;;;5046958;28;20395;-85
2022/10/03 12:01:49;;;;;;;2.25;1.77;;;12.80;99.90;;;;;;5018999;28;20033;-87
2022/10/03 12:04:33;;;;;;;4.35;1.25;;;12.90;99.90;;;;;;5013954;28;20045;-87
2022/10/03 12:10:38;;;;;;;5.13;1.98;;;12.90;99.90;;;;;;5037687;28;20168;-88
2022/10/03 12:13:28;;;;;;;1.83;1.40;;;12.80;99.90;;;;;;5026386;28;20026;-85
2022/10/03 12:15:57;;;;;;;3.83;1.77;;;12.70;99.90;;;;;;5023739;28;20101;-87
2022/10/03 12:19:10;;;;;;;6.18;1.85;;;12.70;99.90;;;;;;5012621;28;20019;-86
2022/10/03 12:21:58;;;;;;;2.17;0.85;;;12.70;99.90;;;;;;5009452;28;20038;-85
2022/10/03 12:24:35;;;;;;;6.15;1.83;;;12.70;99.90;;;;;;5022794;28;20037;-85
2022/10/03 12:27:38;;;;;;;1.55;1.40;;;12.70;99.90;;;;;;5040725;28;20022;-87
2022/10/03 12:30:16;;;;;;;2.85;1.33;;;12.70;99.90;;;;;;5023316;28;20025;-85
2022/10/03 12:32:50;;;;;;;2.25;0.75;;;12.80;99.90;;;;;;5018353;28;20025;-86
2022/10/03 12:35:31;;;;;;;3.55;1.17;;;12.80;99.60;;;;;;5008173;28;20037;-87
2022/10/03 12:38:00;;;;;;;2.45;1.52;;;12.80;98.90;;;;;;5003578;28;20022;-84
2022/10/03 12:40:39;;;;;;;2.17;0.80;;;12.80;99.30;;;;;;5021773;28;20074;-85
2022/10/03 12:43:15;;;;;;;1.17;0.90;;;12.70;99.20;;;;;;5023001;28;20030;-85
2022/10/03 12:45:48;;;;;;;1.60;0.80;;;12.50;97.70;;;;;;5041364;28;20029;-85
2022/10/03 12:48:43;;;;;;;2.35;0.38;;;12.30;98.10;;;;;;5031850;28;20486;-85
2022/10/03 12:51:48;;;;;;;1.85;0.55;;;12.20;97.70;;;;;;5049955;28;20029;-84
2022/10/03 12:54:48;;;;;;;1.88;1.02;;;12.10;98.20;;;;;;5018658;28;20124;-85
2022/10/03 12:57:35;;;;;;;1.92;0.68;;;11.90;98.70;;;;;;5024658;28;20041;-85
2022/10/03 13:00:19;;;;;;;0.85;0.50;;;11.90;98.90;;;;;;5009577;28;20026;-85
2022/10/03 13:03:05;;;;;;;0.63;0.45;;;11.80;99.00;;;;;;5002659;28;20490;-85
2022/10/03 13:05:54;;;;;;;2.17;0.90;;;11.80;99.40;;;;;;4998252;28;20034;-85
2022/10/03 13:08:38;;;;;;;3.67;1.02;;;11.80;99.10;;;;;;5017589;28;20377;-83
2022/10/03 13:11:34;;;;;;;1.45;0.73;;;11.70;98.60;;;;;;5025279;28;20029;-87
2022/10/03 13:14:21;;;;;;;1.98;0.73;;;11.60;98.40;;;;;;5010305;28;20014;-85
2022/10/03 13:17:02;;;;;;;2.17;1.15;;;11.60;97.60;;;;;;5024036;28;20030;-84
2022/10/03 13:20:06;;;;;;;;;;;;;;;;;;;;;
2022/10/03 13:22:47;;;;;;;1.27;1.13;;;11.60;97.80;;;;;;5044706;28;20116;-86
2022/10/03 13:25:44;;;;;;;0.95;0.55;;;11.60;97.60;;;;;;5044864;28;20017;-85
2022/10/03 13:28:14;;;;;;;;;;;11.60;96.90;;;;;;5050085;28;20082;-84
2022/10/03 13:30:51;;;;;;;3.47;2.10;;;11.50;97.00;;;;;;5024531;28;19936;-85
2022/10/03 13:33:25;;;;;;;1.05;0.93;;;11.50;97.00;;;;;;5040140;28;20064;-85
2022/10/03 13:36:12;;;;;;;1.45;0.98;;;11.40;96.50;;;;;;5034668;28;20077;-86
2022/10/03 13:38:51;;;;;;;9.88;1.42;;;11.40;96.70;;;;;;5013847;28;20080;-85
2022/10/03 13:41:45;;;;;;;3.92;1.52;;;11.30;96.70;;;;;;5011410;28;20040;-86
2022/10/03 13:44:33;;;;;;;2.88;1.70;;;11.30;96.50;;;;;;5003840;28;20543;-85
2022/10/03 13:47:23;;;;;;;3.58;1.60;;;11.30;96.10;;;;;;5010934;28;20435;-83
2022/10/03 13:49:57;;;;;;;2.50;1.38;;;11.40;95.90;;;;;;5005439;28;20040;-86
2022/10/03 13:52:43;;;;;;;0.60;0.38;;;11.40;94.80;;;;;;5024178;28;20536;-85
2022/10/03 13:55:28;;;;;;;3.55;0.80;;;11.30;93.20;;;;;;5011278;28;20038;-85
2022/10/03 13:58:11;;;;;;;2.45;0.80;;;11.30;93.30;;;;;;5000776;28;20018;-85
2022/10/03 14:01:14;;;;;;;0.88;0.50;;;11.20;93.20;;;;;;4998993;28;20039;-86
2022/10/03 14:04:19;;;;;;;2.70;0.90;;;11.10;92.40;;;;;;5020261;28;20045;-84
2022/10/03 14:07:25;;;;;;;1.80;0.90;;;11.00;93.00;;;;;;5017620;28;20053;-85
2022/10/03 14:09:59;;;;;;;0.70;0.60;;;11.00;93.30;;;;;;5008249;28;20021;-82
2022/10/03 14:12:55;;;;;;;2.55;0.75;;;10.90;92.70;;;;;;4970562;28;20022;-85
2022/10/03 14:15:54;;;;;;;0.57;0.57;;;10.80;93.00;;;;;;4997862;28;20029;-83
2022/10/03 14:18:27;;;;;;;2.15;0.63;;;10.70;93.10;;;;;;4990029;28;20284;-86
2022/10/03 14:21:15;;;;;;;3.55;0.80;;;10.60;93.10;;;;;;4987894;28;20041;-84
2022/10/03 14:23:46;;;;;;;1.02;0.80;;;10.50;93.30;;;;;;4996912;28;20077;-86
2022/10/03 14:26:32;;;;;;;2.08;1.30;;;10.50;93.80;;;;;;5018092;28;20018;-85
2022/10/03 14:29:09;;;;;;;0.87;0.47;;;10.40;94.00;;;;;;4986972;28;20022;-85
2022/10/03 14:32:00;;;;;;;2.55;1.10;;;10.40;93.40;;;;;;5001160;28;20052;-84
2022/10/03 14:34:55;;;;;;;1.05;0.85;;;10.40;93.40;;;;;;4975513;28;20072;-84
2022/10/03 14:37:36;;;;;;;0.70;0.70;;;10.40;93.70;;;;;;5010393;28;20388;-85
2022/10/03 14:40:19;;;;;;;1.50;0.80;;;10.30;93.90;;;;;;5008122;28;20069;-86